Greenville, SC

1:47 PM EST on January 29, 2015 (GMT -0500)
Greenville Downtown | Change Station
CLOSE
Current Station
Airport
Location: Greenville Downtown,
Elevation: 1047 ft
Nearby Weather Stations

Elev 1047 ft 34.85 °N, 82.35 °W | Updated 54 minutes ago

Clear
Clear
50 °F
Feels Like 50 °F
N
14
Wind Variable Wind from SW

Today
High -- | Low -- °F
--% Chance of Precip.
Yesterday
High -- | Low -- °F
Precip. -- in
7:30 AM 5:55 PM
Waxing Gibbous, 76% visible
Pressure 30.24 in
Visibility 10.0 miles
Clouds Clear
Dew Point 24 °F
Humidity 36%
Rainfall 0.00 in
Snow Depth Not available.
UV 5 out of 12
Pollen 1.80 out of 12
Air Quality Not available.
Flu Activity Not available.
METAR KGMU 291753Z 22012KT 10SM CLR 10/M04 A3023 RMK AO2 SLP239 T01001044 10100 20006 58027

More Conditions Fewer Conditions

Pressure 30.24 in
Visibility 10.0 miles
Clouds Clear
Dew Point 24 °F
Humidity 36%
Rainfall 0.00 in
Snow Depth Not available.
UV 5 out of 12
Pollen 1.80 out of 12
Air Quality Not available.
Flu Activity Not available.
METAR KGMU 291753Z 22012KT 10SM CLR 10/M04 A3023 RMK AO2 SLP239 T01001044 10100 20006 58027

More Conditions Fewer Conditions

10-Day Weather Forecast

Almanac

Astronomy

Jan. 29, 2015 Rise Set
Actual Time
Civil Twilight
Nautical Twilight
Astronomical Twilight
Moon
Length of Visible Light
Length of Day
Tomorrow will be .
, % of the Moon is Illuminated

Today's Extremes

State Highs State Lows

Community

WunderPhotos

Upload Photos

1,791,530 photos uploaded!

WunderBlogs® & News

Nearby

Air Quality

  Air Quality AQ Index Pollutant
Not available.

Snow Depth

Station Depth Elevation

Earthquake Activity

City Distance Mag. Time & Date
Minimum magnitude displayed is 2.5.

Coastal Water Temperatures

Place Temperature

Nearby Weather Stations